createdAt,value
2022-09-23T00:03:17.984Z,100937.00
2022-09-23T00:08:21.774Z,100933.69
2022-09-23T00:13:26.784Z,100931.84
2022-09-23T00:18:30.372Z,100930.98
2022-09-23T00:23:34.687Z,100931.67
2022-09-23T00:28:38.716Z,100922.99
2022-09-23T00:33:42.443Z,100921.17
2022-09-23T00:38:45.731Z,100918.88
2022-09-23T00:43:50.261Z,100919.45
2022-09-23T00:48:59.325Z,100914.27
2022-09-23T00:54:03.451Z,100911.22
2022-09-23T00:59:08.286Z,100909.55
2022-09-23T01:04:11.866Z,100904.48
2022-09-23T01:09:15.988Z,100894.79
2022-09-23T01:14:43.571Z,100895.55
2022-09-23T01:20:21.933Z,100904.34
2022-09-23T01:25:42.315Z,100899.25
2022-09-23T01:30:55.521Z,100892.09
2022-09-23T01:36:20.137Z,100890.16
2022-09-23T01:41:42.935Z,100885.90
2022-09-23T01:47:14.548Z,100884.23
2022-09-23T01:52:38.692Z,100884.16
2022-09-23T01:57:49.145Z,100882.05
2022-09-23T02:02:56.049Z,100880.48
2022-09-23T02:08:03.775Z,100881.23
2022-09-23T02:13:16.005Z,100879.66
2022-09-23T02:18:27.371Z,100880.16
2022-09-23T02:23:36.219Z,100882.15
2022-09-23T02:28:48.910Z,100883.27
2022-09-23T02:33:57.572Z,100877.16
2022-09-23T02:39:04.360Z,100880.09
2022-09-23T02:44:17.159Z,100871.64
2022-09-23T02:49:23.996Z,100868.23
2022-09-23T02:54:29.449Z,100865.95
2022-09-23T02:59:33.459Z,100867.16
2022-09-23T03:04:58.880Z,100866.35
2022-09-23T03:10:19.835Z,100863.46
2022-09-23T03:15:32.372Z,100859.54
2022-09-23T03:20:45.480Z,100858.84
2022-09-23T03:25:50.158Z,100854.90
2022-09-23T03:30:54.070Z,100851.33
2022-09-23T03:36:23.570Z,100852.20
2022-09-23T03:41:32.484Z,100851.91
2022-09-23T03:46:49.956Z,100847.20
2022-09-23T03:52:00.524Z,100840.33
2022-09-23T03:57:04.247Z,100842.85
2022-09-23T04:02:08.456Z,100839.63
2022-09-23T04:07:12.591Z,100837.52
2022-09-23T04:12:17.506Z,100833.54
2022-09-23T04:17:21.025Z,100834.95
2022-09-23T04:22:25.349Z,100833.02
2022-09-23T04:27:28.819Z,100834.63
2022-09-23T04:32:32.225Z,100836.57
2022-09-23T04:37:35.450Z,100840.67
2022-09-23T04:42:38.863Z,100841.73
2022-09-23T04:47:44.700Z,100846.54
2022-09-23T04:52:48.139Z,100845.25
2022-09-23T04:57:51.633Z,100844.48
2022-09-23T05:02:55.179Z,100849.91
2022-09-23T05:08:00.106Z,100845.46
2022-09-23T05:13:03.630Z,100846.67
2022-09-23T05:18:07.170Z,100841.42
2022-09-23T05:23:12.808Z,100843.95
2022-09-23T05:28:20.829Z,100847.98
2022-09-23T05:33:24.443Z,100854.39
2022-09-23T05:38:30.630Z,100855.94
2022-09-23T05:43:35.570Z,100850.67
2022-09-23T05:48:40.128Z,100853.14
2022-09-23T05:53:47.076Z,100854.48
2022-09-23T05:58:54.802Z,100854.85
2022-09-23T06:04:00.188Z,100855.14
2022-09-23T06:09:05.685Z,100850.34
2022-09-23T06:14:12.621Z,100848.95
2022-09-23T06:19:17.988Z,100854.02
2022-09-23T06:24:27.211Z,100857.73
2022-09-23T06:29:33.938Z,100852.66
2022-09-23T06:34:48.659Z,100855.30
2022-09-23T06:39:56.654Z,100854.52
2022-09-23T06:45:00.444Z,100855.31
2022-09-23T06:50:05.047Z,100860.09
2022-09-23T06:55:10.408Z,100861.45
2022-09-23T07:00:14.574Z,100861.46
2022-09-23T07:05:18.192Z,100856.27
2022-09-23T07:10:22.411Z,100860.70
2022-09-23T07:15:26.050Z,100859.77
2022-09-23T07:20:30.414Z,100856.73
2022-09-23T07:25:37.403Z,100858.26
2022-09-23T07:30:50.585Z,100858.79
2022-09-23T07:35:58.265Z,100859.23
2022-09-23T07:41:05.006Z,100857.83
2022-09-23T07:46:12.450Z,100854.81
2022-09-23T07:51:21.723Z,100852.40
2022-09-23T07:56:29.998Z,100850.72
2022-09-23T08:01:37.584Z,100844.20
2022-09-23T08:06:50.918Z,100839.19
2022-09-23T08:11:55.063Z,100829.38
2022-09-23T08:17:06.646Z,100826.91
2022-09-23T08:22:10.691Z,100814.58
2022-09-23T08:27:16.145Z,100813.00
2022-09-23T08:32:19.845Z,100818.98
2022-09-23T08:37:23.452Z,100816.62
2022-09-23T08:42:32.782Z,100817.83
2022-09-23T08:47:47.908Z,100821.23
2022-09-23T08:52:55.505Z,100819.54
2022-09-23T08:58:23.948Z,100814.79
2022-09-23T09:03:31.846Z,100812.95
2022-09-23T09:08:40.109Z,100809.34
2022-09-23T09:13:56.461Z,100805.13
2022-09-23T09:19:01.636Z,100804.66
2022-09-23T09:24:15.243Z,100805.98
2022-09-23T09:29:41.781Z,100802.09
2022-09-23T09:34:56.530Z,100799.64
2022-09-23T09:40:00.348Z,100793.29
2022-09-23T09:45:11.382Z,100798.02
2022-09-23T09:50:21.836Z,100798.52
2022-09-23T09:55:29.095Z,100795.88
2022-09-23T10:00:44.371Z,100788.39
2022-09-23T10:05:50.564Z,100783.77
2022-09-23T10:10:59.875Z,100773.85
2022-09-23T10:16:04.813Z,100773.52
2022-09-23T10:21:17.092Z,100774.73
2022-09-23T10:26:35.650Z,100773.70
2022-09-23T10:31:39.076Z,100766.15
2022-09-23T10:36:56.447Z,100761.30
2022-09-23T10:42:28.714Z,100753.33
2022-09-23T10:48:10.978Z,100747.54
2022-09-23T10:53:42.434Z,100744.16
2022-09-23T10:58:51.894Z,100738.63
2022-09-23T11:04:22.403Z,100730.81
2022-09-23T11:09:47.600Z,100726.02
2022-09-23T11:15:03.281Z,100724.68
2022-09-23T11:20:18.864Z,100719.73
2022-09-23T11:25:31.464Z,100708.16
2022-09-23T11:31:09.498Z,100694.64
2022-09-23T11:36:25.553Z,100689.15
2022-09-23T11:41:31.959Z,100684.42
2022-09-23T11:46:47.958Z,100681.94
2022-09-23T11:52:23.357Z,100673.49
2022-09-23T11:57:42.709Z,100669.25
2022-09-23T12:03:18.636Z,100668.26
2022-09-23T12:08:34.905Z,100663.00
2022-09-23T12:13:47.458Z,100651.88
2022-09-23T12:19:17.688Z,100645.18
2022-09-23T12:24:39.482Z,100644.41
2022-09-23T12:29:42.887Z,100642.23
2022-09-23T12:34:50.181Z,100643.68
2022-09-23T12:39:54.661Z,100642.79
2022-09-23T12:45:35.077Z,100637.58
2022-09-23T12:51:06.936Z,100626.02
2022-09-23T12:56:19.006Z,100622.55
2022-09-23T13:01:24.929Z,100619.34
2022-09-23T13:06:38.921Z,100611.66
2022-09-23T13:11:44.714Z,100605.35
2022-09-23T13:16:49.876Z,100595.59
2022-09-23T13:22:09.809Z,100580.89
2022-09-23T13:27:33.623Z,100569.31
2022-09-23T13:32:45.541Z,100566.49
2022-09-23T13:37:50.162Z,100554.83
2022-09-23T13:43:03.980Z,100547.30
2022-09-23T13:48:22.185Z,100542.00
2022-09-23T13:53:35.571Z,100540.67
2022-09-23T13:58:39.231Z,100538.02
2022-09-23T14:03:45.100Z,100528.07
2022-09-23T14:08:52.799Z,100526.13
2022-09-23T14:13:57.912Z,100524.78
2022-09-23T14:19:01.462Z,100520.83
2022-09-23T14:24:18.617Z,100520.04
2022-09-23T14:29:26.438Z,100519.47
2022-09-23T14:34:42.131Z,100513.45
2022-09-23T14:39:45.629Z,100511.41
2022-09-23T14:44:50.829Z,100503.33
2022-09-23T14:50:13.005Z,100493.69
2022-09-23T14:55:18.217Z,100489.07
2022-09-23T15:00:21.973Z,100481.81
2022-09-23T15:05:44.085Z,100478.98
2022-09-23T15:10:49.043Z,100474.98
2022-09-23T15:15:56.026Z,100474.85
2022-09-23T15:21:09.044Z,100476.16
2022-09-23T15:26:21.026Z,100470.41
2022-09-23T15:31:28.219Z,100472.70
2022-09-23T15:36:35.303Z,100467.95
2022-09-23T15:41:40.250Z,100469.19
2022-09-23T15:46:48.949Z,100465.86
2022-09-23T15:52:02.807Z,100462.39
2022-09-23T15:57:16.916Z,100458.70
2022-09-23T16:02:27.603Z,100457.95
2022-09-23T16:07:31.469Z,100459.73
2022-09-23T16:12:37.961Z,100459.84
2022-09-23T16:18:08.513Z,100457.75
2022-09-23T16:23:35.283Z,100455.45
2022-09-23T16:28:43.319Z,100460.79
2022-09-23T16:34:00.655Z,100461.82
2022-09-23T16:39:15.262Z,100464.67
2022-09-23T16:44:44.817Z,100464.17
2022-09-23T16:50:44.528Z,100461.32
2022-09-23T16:56:04.871Z,100461.28
2022-09-23T17:01:41.701Z,100465.83
2022-09-23T17:07:01.716Z,100462.65
2022-09-23T17:12:35.864Z,100462.54
2022-09-23T17:17:39.874Z,100458.94
2022-09-23T17:22:49.109Z,100456.51
2022-09-23T17:27:54.001Z,100455.76
2022-09-23T17:32:57.860Z,100455.67
2022-09-23T17:38:02.624Z,100452.84
2022-09-23T17:43:14.987Z,100448.60
2022-09-23T17:48:27.833Z,100449.98
2022-09-23T17:53:45.871Z,100451.66
2022-09-23T17:59:05.723Z,100455.64
2022-09-23T18:04:18.196Z,100451.08
2022-09-23T18:09:33.994Z,100449.08
2022-09-23T18:20:03.553Z,100452.10
2022-09-23T18:25:22.978Z,100457.25
2022-09-23T18:30:41.636Z,100457.42
2022-09-23T18:35:55.333Z,100456.70
2022-09-23T18:41:07.905Z,100447.73
2022-09-23T18:46:16.074Z,100448.19
2022-09-23T18:51:36.390Z,100447.52
2022-09-23T18:57:15.197Z,100447.73
2022-09-23T19:02:40.954Z,100449.27
2022-09-23T19:08:06.329Z,100447.30
2022-09-23T19:18:59.386Z,100438.06
2022-09-23T19:24:07.282Z,100433.46
2022-09-23T19:29:19.840Z,100432.61
2022-09-23T19:34:40.743Z,100432.14
2022-09-23T19:39:53.669Z,100428.95
2022-09-23T19:45:06.560Z,100429.67
2022-09-23T19:50:39.309Z,100430.73
2022-09-23T19:56:01.422Z,100432.96
2022-09-23T20:07:12.442Z,100431.13
2022-09-23T20:12:19.834Z,100428.26
2022-09-23T20:17:30.132Z,100428.02
2022-09-23T20:22:44.686Z,100424.56
2022-09-23T20:28:04.928Z,100427.21
2022-09-23T20:33:17.359Z,100421.20
2022-09-23T20:38:28.532Z,100419.16
2022-09-23T20:43:42.696Z,100412.21
2022-09-23T20:48:57.271Z,100408.57
2022-09-23T20:54:16.408Z,100412.31
2022-09-23T20:59:22.097Z,100411.66
2022-09-23T21:04:25.896Z,100410.99
2022-09-23T21:09:36.029Z,100409.67
2022-09-23T21:16:41.597Z,100408.36
2022-09-23T21:21:02.209Z,100411.53
2022-09-23T21:26:20.657Z,100411.62
2022-09-23T21:31:33.968Z,100413.58
2022-09-23T21:36:53.954Z,100413.51
2022-09-23T21:42:10.834Z,100414.18
2022-09-23T21:47:24.705Z,100417.65
2022-09-23T21:52:56.225Z,100424.40
2022-09-23T21:58:03.461Z,100422.91
2022-09-23T22:03:13.861Z,100416.92
2022-09-23T22:08:39.358Z,100409.91
2022-09-23T22:14:04.440Z,100411.29
2022-09-23T22:19:11.205Z,100405.56
2022-09-23T22:24:15.458Z,100399.70
2022-09-23T22:29:38.706Z,100393.36
2022-09-23T22:34:52.588Z,100393.23
2022-09-23T22:40:14.541Z,100390.18
2022-09-23T22:45:18.665Z,100391.57
2022-09-23T22:50:22.400Z,100389.34
2022-09-23T22:55:26.330Z,100381.73
2022-09-23T23:00:31.963Z,100380.02
2022-09-23T23:05:42.792Z,100374.41
2022-09-23T23:10:55.339Z,100376.83
2022-09-23T23:16:04.586Z,100372.46
2022-09-23T23:21:15.243Z,100372.29
2022-09-23T23:26:28.180Z,100362.59
2022-09-23T23:31:37.534Z,100367.17
2022-09-23T23:36:50.870Z,100368.64
2022-09-23T23:42:01.403Z,100361.50
2022-09-23T23:47:09.738Z,100361.02
2022-09-23T23:52:22.048Z,100358.63
2022-09-23T23:57:27.569Z,100356.09
